Time;durP1;ratioP1;P1;durP2;ratioP2;P2;SDS_P1;SDS_P2;PMS_P1;PMS_P2;Temp;Humidity;BMP_temperature;BMP_pressure;BME280_temperature;BME280_humidity;BME280_pressure;Samples;Min_cycle;Max_cycle;Signal;HPM_P1;HPM_P2
2021/06/22 00:00:23;;;;;;;1.23;0.80;;;29.00;48.50;;;;;;5067656;28;20550;-61
2021/06/22 00:02:49;;;;;;;0.98;0.73;;;29.00;48.50;;;;;;5055120;28;20048;-62
2021/06/22 00:05:17;;;;;;;0.80;0.60;;;29.00;48.50;;;;;;5050219;28;20029;-61
2021/06/22 00:07:46;;;;;;;0.82;0.60;;;29.00;48.50;;;;;;5056469;28;20029;-61
2021/06/22 00:10:12;;;;;;;0.70;0.70;;;29.00;48.50;;;;;;5052711;28;20020;-61
2021/06/22 00:12:38;;;;;;;1.45;0.70;;;29.00;48.50;;;;;;5051328;28;20033;-61
2021/06/22 00:15:05;;;;;;;1.83;0.80;;;29.00;48.60;;;;;;5050274;28;20448;-64
2021/06/22 00:17:31;;;;;;;1.48;0.70;;;29.00;48.60;;;;;;5052891;28;20549;-61
2021/06/22 00:19:56;;;;;;;1.20;0.60;;;29.00;48.60;;;;;;5053729;28;20111;-61
2021/06/22 00:22:22;;;;;;;1.33;0.77;;;29.00;48.60;;;;;;5057909;28;20569;-60
2021/06/22 00:24:48;;;;;;;0.75;0.68;;;29.00;48.60;;;;;;5060307;28;20024;-61
2021/06/22 00:27:14;;;;;;;0.75;0.50;;;29.00;48.60;;;;;;5051501;28;20032;-60
2021/06/22 00:29:43;;;;;;;1.25;0.80;;;28.90;48.50;;;;;;5048524;28;20067;-60
2021/06/22 00:32:10;;;;;;;0.52;0.52;;;28.90;48.50;;;;;;5065301;28;20036;-63
2021/06/22 00:34:36;;;;;;;0.63;0.52;;;29.00;48.60;;;;;;5058058;28;20131;-61
2021/06/22 00:37:02;;;;;;;1.00;0.57;;;28.90;48.60;;;;;;5053507;28;20021;-62
2021/06/22 00:39:28;;;;;;;1.95;0.80;;;28.90;48.60;;;;;;5054409;28;20085;-62
2021/06/22 00:41:53;;;;;;;1.05;0.70;;;28.90;48.60;;;;;;5062335;28;20364;-59
2021/06/22 00:44:19;;;;;;;0.55;0.50;;;28.90;48.60;;;;;;5049408;28;20041;-60
2021/06/22 00:46:45;;;;;;;0.60;0.50;;;28.90;48.60;;;;;;5049706;28;20103;-62
2021/06/22 00:49:10;;;;;;;0.60;0.60;;;28.90;48.60;;;;;;5069579;28;20043;-64
2021/06/22 00:51:36;;;;;;;1.38;0.70;;;28.90;48.60;;;;;;5055168;28;20151;-60
2021/06/22 00:54:03;;;;;;;0.98;0.70;;;28.90;49.20;;;;;;5064683;28;20116;-59
2021/06/22 00:56:32;;;;;;;1.02;0.70;;;28.90;48.60;;;;;;5060703;28;20360;-60
2021/06/22 00:58:58;;;;;;;0.57;0.57;;;28.90;48.70;;;;;;5062509;28;20514;-60
2021/06/22 01:01:24;;;;;;;1.35;0.68;;;28.90;48.70;;;;;;5063907;28;20059;-62
2021/06/22 01:03:50;;;;;;;0.70;0.60;;;28.90;48.70;;;;;;5066049;28;20177;-60
2021/06/22 01:06:17;;;;;;;0.88;0.60;;;28.90;48.70;;;;;;5054738;28;20455;-61
2021/06/22 01:08:43;;;;;;;1.00;0.60;;;28.90;48.70;;;;;;5059486;28;20235;-61
2021/06/22 01:11:09;;;;;;;0.55;0.50;;;28.90;48.70;;;;;;5065662;28;20012;-61
2021/06/22 01:13:34;;;;;;;1.83;0.70;;;28.90;48.70;;;;;;5067042;28;20040;-61
2021/06/22 01:16:00;;;;;;;1.08;0.60;;;28.90;48.70;;;;;;5066763;28;20021;-61
2021/06/22 01:18:25;;;;;;;0.90;0.70;;;28.80;48.70;;;;;;5063987;28;20368;-62
2021/06/22 01:20:58;;;;;;;1.30;0.70;;;28.90;48.70;;;;;;5070926;28;20029;-59
2021/06/22 01:23:23;;;;;;;1.10;0.70;;;28.90;48.70;;;;;;5056638;28;20056;-61
2021/06/22 01:25:49;;;;;;;1.17;0.75;;;28.80;48.70;;;;;;5055993;28;20149;-59
2021/06/22 01:28:15;;;;;;;0.50;0.50;;;28.80;48.70;;;;;;5068065;28;20036;-63
2021/06/22 01:30:40;;;;;;;0.85;0.60;;;28.80;48.70;;;;;;5053258;28;20036;-62
2021/06/22 01:33:06;;;;;;;1.10;0.70;;;28.80;48.70;;;;;;5052835;28;20554;-60
2021/06/22 01:35:33;;;;;;;0.93;0.60;;;28.80;48.70;;;;;;5050763;28;20498;-60
2021/06/22 01:38:01;;;;;;;0.63;0.60;;;28.80;48.70;;;;;;5047748;28;20631;-59
2021/06/22 01:40:27;;;;;;;0.60;0.55;;;28.80;48.70;;;;;;5057650;28;20044;-60
2021/06/22 01:43:00;;;;;;;0.77;0.60;;;28.80;48.70;;;;;;5050518;28;20040;-60
2021/06/22 01:45:26;;;;;;;0.75;0.60;;;28.80;48.80;;;;;;5057244;28;20063;-59
2021/06/22 01:47:52;;;;;;;1.10;0.70;;;28.80;48.80;;;;;;5055123;28;20027;-63
2021/06/22 01:50:18;;;;;;;1.35;0.70;;;28.70;48.70;;;;;;5073211;28;20242;-62
2021/06/22 01:52:44;;;;;;;0.73;0.63;;;28.70;48.70;;;;;;5054779;28;20041;-60
2021/06/22 01:57:57;;;;;;;0.93;0.60;;;28.70;48.70;;;;;;5051991;28;20541;-60
2021/06/22 02:00:23;;;;;;;0.57;0.50;;;28.70;48.80;;;;;;5062737;28;20113;-60
2021/06/22 02:02:48;;;;;;;0.47;0.47;;;28.70;48.80;;;;;;5056461;28;20089;-59
2021/06/22 02:05:15;;;;;;;0.60;0.50;;;28.70;49.30;;;;;;5055129;28;20070;-62
2021/06/22 02:07:41;;;;;;;0.80;0.60;;;28.70;48.80;;;;;;5063518;28;20028;-62
2021/06/22 02:10:08;;;;;;;0.63;0.50;;;28.70;48.80;;;;;;5050966;28;20017;-63
2021/06/22 02:12:34;;;;;;;0.60;0.60;;;28.70;48.80;;;;;;5061237;28;20056;-60
2021/06/22 02:15:00;;;;;;;0.60;0.50;;;28.70;48.80;;;;;;5070810;28;20432;-62
2021/06/22 02:17:26;;;;;;;0.70;0.60;;;28.70;48.80;;;;;;5063342;28;20490;-67
2021/06/22 02:19:52;;;;;;;1.27;0.70;;;28.70;48.80;;;;;;5075544;28;20030;-60
2021/06/22 02:22:17;;;;;;;0.50;0.50;;;28.70;48.80;;;;;;5047239;28;20112;-61
2021/06/22 02:24:43;;;;;;;0.60;0.60;;;28.70;48.80;;;;;;5050216;28;20091;-62
2021/06/22 02:27:09;;;;;;;0.70;0.60;;;28.70;48.80;;;;;;5046846;28;20075;-63
2021/06/22 02:29:34;;;;;;;0.77;0.70;;;28.70;48.80;;;;;;5051918;28;20067;-62
2021/06/22 02:32:00;;;;;;;0.60;0.50;;;28.70;48.80;;;;;;5067625;28;20716;-60
2021/06/22 02:34:26;;;;;;;1.40;0.85;;;28.70;48.80;;;;;;5050254;28;20444;-60
2021/06/22 02:36:51;;;;;;;0.80;0.60;;;28.70;48.80;;;;;;5051229;28;20048;-59
2021/06/22 02:39:17;;;;;;;0.85;0.60;;;28.70;48.80;;;;;;5083961;28;20021;-60
2021/06/22 02:41:42;;;;;;;0.75;0.60;;;28.70;48.90;;;;;;5052652;28;20772;-63
2021/06/22 02:44:08;;;;;;;0.68;0.55;;;28.60;48.80;;;;;;5048491;28;20041;-61
2021/06/22 02:46:34;;;;;;;0.73;0.50;;;28.60;48.80;;;;;;5051607;28;20040;-64
2021/06/22 02:48:59;;;;;;;0.50;0.50;;;28.60;48.80;;;;;;5058582;28;20050;-60
2021/06/22 02:51:25;;;;;;;0.70;0.52;;;28.60;48.80;;;;;;5060150;28;20040;-62
2021/06/22 02:53:50;;;;;;;1.00;0.60;;;28.60;49.10;;;;;;5065678;28;20033;-60
2021/06/22 02:56:16;;;;;;;0.98;0.73;;;28.60;48.80;;;;;;5066911;28;20474;-60
2021/06/22 02:58:42;;;;;;;1.10;0.60;;;28.60;48.90;;;;;;5070162;28;20127;-60
2021/06/22 03:01:07;;;;;;;0.50;0.50;;;28.60;48.90;;;;;;5053485;28;20084;-60
2021/06/22 03:03:33;;;;;;;0.70;0.60;;;28.60;48.90;;;;;;5050936;28;20633;-62
2021/06/22 03:05:59;;;;;;;0.77;0.60;;;28.60;48.80;;;;;;5063941;28;20091;-61
2021/06/22 03:08:24;;;;;;;0.98;0.70;;;28.60;48.80;;;;;;5050890;28;20041;-60
2021/06/22 03:10:50;;;;;;;0.50;0.50;;;28.60;48.90;;;;;;5053006;28;20079;-60
2021/06/22 03:13:15;;;;;;;0.98;0.52;;;28.60;48.90;;;;;;5059137;28;20037;-61
2021/06/22 03:15:41;;;;;;;0.95;0.60;;;28.60;48.90;;;;;;5054018;28;20028;-65
2021/06/22 03:18:07;;;;;;;0.63;0.60;;;28.60;48.90;;;;;;5066909;28;20463;-62
2021/06/22 03:20:32;;;;;;;0.77;0.68;;;28.60;48.90;;;;;;5067206;28;20040;-60
2021/06/22 03:22:59;;;;;;;0.50;0.50;;;28.60;48.90;;;;;;5063763;28;20041;-62
2021/06/22 03:25:24;;;;;;;1.02;0.60;;;28.60;48.90;;;;;;5051339;28;20033;-61
2021/06/22 03:27:50;;;;;;;0.70;0.60;;;28.60;48.90;;;;;;5062469;28;20169;-60
2021/06/22 03:30:16;;;;;;;0.63;0.60;;;28.50;48.80;;;;;;5057383;28;20033;-61
2021/06/22 03:32:45;;;;;;;0.50;0.40;;;28.50;48.90;;;;;;5049426;28;20507;-61
2021/06/22 03:35:11;;;;;;;0.75;0.60;;;28.60;48.90;;;;;;5049473;28;20033;-64
2021/06/22 03:37:37;;;;;;;1.20;0.75;;;28.50;48.90;;;;;;5061617;28;20032;-60
2021/06/22 03:40:05;;;;;;;0.70;0.60;;;28.50;48.90;;;;;;5055094;28;20036;-60
2021/06/22 03:42:33;;;;;;;0.43;0.43;;;28.50;48.90;;;;;;5066198;28;20357;-60
2021/06/22 03:44:58;;;;;;;1.27;0.50;;;28.50;48.90;;;;;;5060000;28;20037;-63
2021/06/22 03:47:24;;;;;;;0.70;0.65;;;28.50;48.90;;;;;;5062457;28;20143;-61
2021/06/22 03:49:50;;;;;;;0.50;0.50;;;28.50;48.90;;;;;;5061010;28;20144;-61
2021/06/22 03:52:15;;;;;;;0.80;0.60;;;28.50;48.90;;;;;;5050024;28;20043;-63
2021/06/22 03:54:41;;;;;;;1.63;0.85;;;28.50;49.00;;;;;;5058162;28;20133;-62
2021/06/22 03:57:06;;;;;;;4.50;1.00;;;28.50;48.40;;;;;;5058638;28;20028;-61
2021/06/22 03:59:32;;;;;;;4.97;1.10;;;28.40;47.90;;;;;;5065861;28;20142;-61
2021/06/22 04:01:58;;;;;;;3.55;0.90;;;28.30;47.40;;;;;;5057237;28;20537;-62
2021/06/22 04:04:23;;;;;;;3.45;1.00;;;28.30;47.10;;;;;;5056167;28;20062;-60
2021/06/22 04:06:49;;;;;;;2.22;0.90;;;28.20;47.00;;;;;;5067310;28;20032;-62
2021/06/22 04:09:15;;;;;;;3.20;1.00;;;28.20;46.90;;;;;;5057377;28;20036;-60
2021/06/22 04:11:40;;;;;;;1.73;0.90;;;28.10;47.10;;;;;;5050761;28;20025;-60
2021/06/22 04:14:06;;;;;;;3.08;1.33;;;28.10;47.10;;;;;;5056416;28;20112;-60
2021/06/22 04:16:31;;;;;;;2.83;1.00;;;28.00;47.10;;;;;;5049886;28;20112;-60
2021/06/22 04:18:57;;;;;;;2.45;1.00;;;28.00;47.10;;;;;;5070560;28;20024;-61
2021/06/22 04:21:23;;;;;;;2.63;1.10;;;28.00;47.10;;;;;;5053736;28;20484;-61
2021/06/22 04:23:48;;;;;;;2.22;1.10;;;27.90;47.30;;;;;;5052277;28;20032;-61
2021/06/22 04:26:16;;;;;;;2.03;0.95;;;27.90;47.50;;;;;;5055786;28;20029;-61
2021/06/22 04:28:41;;;;;;;2.17;1.00;;;27.80;47.60;;;;;;5052254;28;20041;-63
2021/06/22 04:31:07;;;;;;;1.95;1.00;;;27.80;47.80;;;;;;5067313;28;20120;-59
2021/06/22 04:33:33;;;;;;;2.50;1.10;;;27.70;47.80;;;;;;5060039;28;20757;-60
2021/06/22 04:35:58;;;;;;;2.97;0.90;;;27.70;47.90;;;;;;5055870;28;20107;-60
2021/06/22 04:38:24;;;;;;;1.92;1.00;;;27.70;48.00;;;;;;5059807;28;20029;-61
2021/06/22 04:40:49;;;;;;;1.75;0.95;;;27.60;48.10;;;;;;5050971;28;20047;-63
2021/06/22 04:43:15;;;;;;;2.10;1.20;;;27.60;48.20;;;;;;5061495;28;20029;-61
2021/06/22 04:45:41;;;;;;;2.58;0.80;;;27.60;48.40;;;;;;5062297;28;20036;-64
2021/06/22 04:48:07;;;;;;;2.78;1.23;;;27.50;48.40;;;;;;5065138;28;20085;-61
2021/06/22 04:50:33;;;;;;;2.08;1.00;;;27.60;48.60;;;;;;5063459;28;20035;-65
2021/06/22 04:52:58;;;;;;;1.15;0.70;;;27.50;48.60;;;;;;5047551;28;20040;-64
2021/06/22 04:55:25;;;;;;;1.55;0.90;;;27.50;48.70;;;;;;5056492;28;20036;-62
2021/06/22 04:57:52;;;;;;;1.92;0.90;;;27.50;48.70;;;;;;5050231;28;20035;-62
2021/06/22 05:00:19;;;;;;;1.55;0.93;;;27.50;48.80;;;;;;5053153;28;20025;-60
2021/06/22 05:02:45;;;;;;;2.30;1.00;;;27.40;48.80;;;;;;5049910;28;20028;-61
2021/06/22 05:05:12;;;;;;;2.97;1.00;;;27.40;48.90;;;;;;5049390;28;20033;-61
2021/06/22 05:07:38;;;;;;;1.77;1.00;;;27.40;49.00;;;;;;5048810;28;20029;-61
2021/06/22 05:10:05;;;;;;;2.55;0.93;;;27.30;49.00;;;;;;5053918;28;20025;-63
2021/06/22 05:12:31;;;;;;;2.72;1.00;;;27.30;49.10;;;;;;5050014;28;20037;-65
2021/06/22 05:14:56;;;;;;;2.33;1.00;;;27.30;49.20;;;;;;5052830;28;20031;-62
2021/06/22 05:17:22;;;;;;;2.92;1.10;;;27.30;49.30;;;;;;5055147;28;20156;-63
2021/06/22 05:19:47;;;;;;;2.13;0.90;;;27.20;49.40;;;;;;5061644;28;20033;-61
2021/06/22 05:22:14;;;;;;;1.80;0.90;;;27.20;49.40;;;;;;5047422;28;20028;-61
2021/06/22 05:24:41;;;;;;;2.70;1.00;;;27.20;49.50;;;;;;5056722;28;20115;-63
2021/06/22 05:27:07;;;;;;;4.70;1.00;;;27.20;49.50;;;;;;5053394;28;20033;-61
2021/06/22 05:29:33;;;;;;;1.98;0.95;;;27.20;50.10;;;;;;5053851;28;20021;-62
2021/06/22 05:31:59;;;;;;;2.63;1.25;;;27.10;49.90;;;;;;5053737;28;20037;-62
2021/06/22 05:34:25;;;;;;;3.05;1.10;;;27.20;49.90;;;;;;5054626;28;20549;-61
2021/06/22 05:36:51;;;;;;;1.90;1.13;;;27.20;49.90;;;;;;5060319;28;20033;-60
2021/06/22 05:39:17;;;;;;;4.22;1.20;;;27.20;49.90;;;;;;5050843;28;20087;-59
2021/06/22 05:41:42;;;;;;;3.50;1.10;;;27.10;50.10;;;;;;5048704;28;20174;-60
2021/06/22 05:44:08;;;;;;;2.47;1.00;;;27.20;50.20;;;;;;5063839;28;20084;-60
2021/06/22 05:46:34;;;;;;;2.85;1.30;;;27.10;50.50;;;;;;5060148;28;20029;-61
2021/06/22 05:49:00;;;;;;;1.88;1.10;;;27.00;50.30;;;;;;5058503;28;20124;-59
2021/06/22 05:51:25;;;;;;;1.85;0.93;;;26.90;50.20;;;;;;5059361;28;20589;-59
2021/06/22 05:53:51;;;;;;;2.00;1.00;;;26.90;50.20;;;;;;5052255;28;20049;-62
2021/06/22 05:56:17;;;;;;;1.35;0.95;;;26.90;50.20;;;;;;5056294;28;20116;-60
2021/06/22 05:58:43;;;;;;;1.92;0.93;;;27.00;50.40;;;;;;5054059;28;20388;-60
2021/06/22 06:01:08;;;;;;;1.85;1.00;;;27.00;50.40;;;;;;5055849;28;20040;-61
2021/06/22 06:03:34;;;;;;;2.17;1.00;;;27.00;50.30;;;;;;5062172;28;20033;-61
2021/06/22 06:06:04;;;;;;;3.42;1.42;;;27.00;50.40;;;;;;5051355;28;20112;-61
2021/06/22 06:08:32;;;;;;;1.98;1.20;;;27.00;50.40;;;;;;5058585;28;20061;-59
2021/06/22 06:10:57;;;;;;;1.67;0.80;;;27.00;50.40;;;;;;5048026;28;20044;-60
2021/06/22 06:13:37;;;;;;;1.88;1.00;;;27.00;50.40;;;;;;5049865;28;20032;-61
2021/06/22 06:16:03;;;;;;;;;;;27.00;50.50;;;;;;5047609;28;20025;-59
2021/06/22 06:18:29;;;;;;;2.70;1.05;;;27.00;50.60;;;;;;5054574;28;19966;-60
2021/06/22 06:20:56;;;;;;;3.45;1.10;;;26.90;50.80;;;;;;5054601;28;20362;-60
2021/06/22 06:23:24;;;;;;;2.67;1.10;;;26.90;50.60;;;;;;5059038;28;20033;-59
2021/06/22 06:25:50;;;;;;;2.45;0.90;;;26.80;50.60;;;;;;5050609;28;20040;-59
2021/06/22 06:28:18;;;;;;;2.60;1.00;;;26.80;50.80;;;;;;5055949;28;20045;-59
2021/06/22 06:30:43;;;;;;;1.55;0.90;;;26.70;50.80;;;;;;5045880;28;20636;-60
2021/06/22 06:33:09;;;;;;;1.92;0.93;;;26.60;51.00;;;;;;5046017;28;20033;-57
2021/06/22 06:35:35;;;;;;;1.50;0.90;;;26.60;51.20;;;;;;5055120;28;20500;-59
2021/06/22 06:38:01;;;;;;;1.75;0.95;;;26.60;51.20;;;;;;5063332;28;20117;-61
2021/06/22 06:40:26;;;;;;;1.42;1.00;;;26.70;51.30;;;;;;5065802;28;20103;-60
2021/06/22 06:42:52;;;;;;;2.03;1.00;;;26.70;51.40;;;;;;5046410;28;20079;-59
2021/06/22 06:45:18;;;;;;;1.73;0.98;;;26.70;51.40;;;;;;5063931;28;20028;-59
2021/06/22 06:47:45;;;;;;;2.38;1.10;;;26.70;52.10;;;;;;5052354;28;20044;-59
2021/06/22 06:50:11;;;;;;;1.90;1.00;;;26.70;51.70;;;;;;5053633;28;20071;-61
2021/06/22 06:52:37;;;;;;;2.13;0.93;;;26.70;51.90;;;;;;5062367;28;20483;-59
2021/06/22 06:55:03;;;;;;;2.03;1.08;;;26.70;51.90;;;;;;5064262;28;20103;-60
2021/06/22 06:57:29;;;;;;;2.30;1.02;;;26.70;52.00;;;;;;5064613;28;20123;-61
2021/06/22 06:59:55;;;;;;;2.03;1.10;;;26.60;52.30;;;;;;5065487;28;20492;-60
2021/06/22 07:02:21;;;;;;;1.80;1.00;;;26.60;52.40;;;;;;5048710;28;20059;-58
2021/06/22 07:04:46;;;;;;;2.05;1.00;;;26.60;52.40;;;;;;5053289;28;20534;-60
2021/06/22 07:07:12;;;;;;;1.95;1.10;;;26.60;52.50;;;;;;5065017;28;20076;-59
2021/06/22 07:09:37;;;;;;;2.75;0.98;;;26.50;52.50;;;;;;5059879;28;20047;-59
2021/06/22 07:12:04;;;;;;;1.95;1.05;;;26.50;52.70;;;;;;5060765;28;20063;-59
2021/06/22 07:14:29;;;;;;;1.70;1.00;;;26.50;52.80;;;;;;5046846;28;20617;-60
2021/06/22 07:16:55;;;;;;;1.77;1.00;;;26.50;52.70;;;;;;5056506;28;20040;-60
2021/06/22 07:19:20;;;;;;;1.98;0.90;;;26.50;52.70;;;;;;5058466;28;20497;-59
2021/06/22 07:21:46;;;;;;;1.90;1.10;;;26.50;52.70;;;;;;5054910;28;20093;-61
2021/06/22 07:24:13;;;;;;;1.73;0.93;;;26.50;52.70;;;;;;5069204;28;20025;-59
2021/06/22 07:26:39;;;;;;;2.40;1.13;;;26.50;52.70;;;;;;5051610;28;20112;-60
2021/06/22 07:29:06;;;;;;;2.50;1.00;;;26.50;52.80;;;;;;5064684;28;20028;-59
2021/06/22 07:31:35;;;;;;;1.85;0.98;;;26.50;52.80;;;;;;5065507;28;20712;-60
2021/06/22 07:34:01;;;;;;;2.75;1.30;;;26.50;53.00;;;;;;5065309;28;20024;-61
2021/06/22 07:36:27;;;;;;;2.05;1.10;;;26.50;52.90;;;;;;5054901;28;20119;-59
2021/06/22 07:38:52;;;;;;;1.42;0.82;;;26.50;53.00;;;;;;5068421;28;20652;-59
2021/06/22 07:41:18;;;;;;;1.95;0.90;;;26.50;53.00;;;;;;5062814;28;20060;-59
2021/06/22 07:43:44;;;;;;;2.38;0.80;;;26.60;52.80;;;;;;5053812;28;20114;-60
2021/06/22 07:46:10;;;;;;;2.58;1.00;;;26.60;52.90;;;;;;5052780;28;20107;-59
2021/06/22 07:48:36;;;;;;;1.92;0.90;;;26.70;52.40;;;;;;5068673;28;20438;-61
2021/06/22 07:51:01;;;;;;;1.52;1.05;;;26.70;52.20;;;;;;5054372;28;20029;-61
2021/06/22 07:53:27;;;;;;;1.00;0.70;;;26.70;52.20;;;;;;5050730;28;20063;-58
2021/06/22 07:55:53;;;;;;;1.77;0.80;;;26.80;52.10;;;;;;5052061;28;20025;-59
2021/06/22 07:58:18;;;;;;;1.48;0.80;;;26.90;52.00;;;;;;5064060;28;20033;-59
2021/06/22 08:00:49;;;;;;;1.88;0.77;;;26.90;52.00;;;;;;5061643;28;20093;-59
2021/06/22 08:03:19;;;;;;;1.50;0.90;;;26.90;51.90;;;;;;5050220;28;20024;-59
2021/06/22 08:05:46;;;;;;;1.85;0.90;;;26.90;51.70;;;;;;5050540;28;20029;-59
2021/06/22 08:08:14;;;;;;;1.60;0.75;;;26.90;51.60;;;;;;5049985;28;20059;-58
2021/06/22 08:10:40;;;;;;;1.73;0.90;;;27.00;51.50;;;;;;5062590;28;20082;-61
2021/06/22 08:13:06;;;;;;;1.70;0.85;;;27.00;51.40;;;;;;5064798;28;20092;-58
2021/06/22 08:15:32;;;;;;;1.23;0.80;;;27.00;51.30;;;;;;5048876;28;20029;-58
2021/06/22 08:17:58;;;;;;;1.27;0.70;;;27.00;51.30;;;;;;5058999;28;20036;-59
2021/06/22 08:20:24;;;;;;;3.17;0.90;;;27.10;51.30;;;;;;5065948;28;20325;-59
2021/06/22 08:22:54;;;;;;;1.40;0.70;;;27.10;51.20;;;;;;5051976;28;20029;-58
2021/06/22 08:25:24;;;;;;;1.75;0.77;;;27.10;51.10;;;;;;5061718;28;20020;-61
2021/06/22 08:27:50;;;;;;;1.02;0.80;;;27.20;51.10;;;;;;5058451;28;20029;-59
2021/06/22 08:30:18;;;;;;;0.85;0.75;;;27.20;51.00;;;;;;5063283;28;20048;-59
2021/06/22 08:32:45;;;;;;;1.42;0.70;;;27.20;51.00;;;;;;5049755;28;20029;-59
2021/06/22 08:35:11;;;;;;;1.95;1.00;;;27.30;51.00;;;;;;5060834;28;20028;-61
2021/06/22 08:37:36;;;;;;;1.40;0.80;;;27.30;50.90;;;;;;5055157;28;20098;-60
2021/06/22 08:40:04;;;;;;;2.08;0.82;;;27.30;50.80;;;;;;5050951;28;20450;-59
2021/06/22 08:42:31;;;;;;;1.45;0.80;;;27.30;50.80;;;;;;5065126;28;20039;-59
2021/06/22 08:44:58;;;;;;;1.15;0.90;;;27.40;51.30;;;;;;5058889;28;20037;-59
2021/06/22 08:47:25;;;;;;;2.63;0.90;;;27.40;51.10;;;;;;5056214;28;20039;-59
2021/06/22 08:49:52;;;;;;;2.08;0.90;;;27.40;51.00;;;;;;5060184;28;20028;-59
2021/06/22 08:52:29;;;;;;;1.35;0.80;;;27.40;50.90;;;;;;5055898;28;20443;-57
2021/06/22 08:54:55;;;;;;;1.55;0.80;;;27.50;50.90;;;;;;5054437;28;20388;-60
2021/06/22 08:57:22;;;;;;;1.75;0.80;;;27.50;50.80;;;;;;5058813;28;20024;-59
2021/06/22 08:59:49;;;;;;;1.45;0.80;;;27.50;50.80;;;;;;5072738;28;20378;-61
2021/06/22 09:02:16;;;;;;;1.50;0.70;;;27.60;50.90;;;;;;5057360;28;20043;-60
2021/06/22 09:04:41;;;;;;;2.03;0.90;;;27.60;50.90;;;;;;5055822;28;20121;-60
2021/06/22 09:07:07;;;;;;;2.22;0.80;;;27.60;50.80;;;;;;5070795;28;20036;-58
2021/06/22 09:09:37;;;;;;;2.33;0.90;;;27.60;50.70;;;;;;5069131;28;20040;-59
2021/06/22 09:12:05;;;;;;;1.42;0.77;;;27.70;50.70;;;;;;5067090;28;20424;-61
2021/06/22 09:14:38;;;;;;;1.73;0.90;;;27.70;50.70;;;;;;5060800;28;20035;-58
2021/06/22 09:17:05;;;;;;;1.10;0.70;;;27.70;50.60;;;;;;5064256;28;20028;-59
2021/06/22 09:19:32;;;;;;;1.25;0.90;;;27.70;50.50;;;;;;5055749;28;22058;-59
2021/06/22 09:22:13;;;;;;;1.10;0.70;;;27.80;50.50;;;;;;5052358;28;20450;-59
2021/06/22 09:24:39;;;;;;;1.13;0.77;;;27.80;50.30;;;;;;5054744;28;20108;-59
2021/06/22 09:27:05;;;;;;;1.10;0.80;;;27.80;50.10;;;;;;5059718;28;20499;-59
2021/06/22 09:29:44;;;;;;;0.95;0.70;;;27.80;50.30;;;;;;5055521;28;20519;-59
2021/06/22 09:32:09;;;;;;;1.50;0.80;;;27.80;50.30;;;;;;5053318;28;20118;-61
2021/06/22 09:34:35;;;;;;;1.88;0.90;;;27.80;50.30;;;;;;5049532;28;20350;-59
2021/06/22 09:37:07;;;;;;;1.02;0.73;;;27.90;50.30;;;;;;5065207;28;20105;-58
2021/06/22 09:39:33;;;;;;;0.90;0.70;;;27.90;50.30;;;;;;5065828;28;20365;-59
2021/06/22 09:41:59;;;;;;;0.80;0.60;;;27.90;50.20;;;;;;5053133;28;20033;-59
2021/06/22 09:44:27;;;;;;;1.10;0.70;;;27.90;50.10;;;;;;5055258;28;20059;-60
2021/06/22 09:46:54;;;;;;;1.30;0.80;;;28.00;50.20;;;;;;5055730;28;20032;-59
2021/06/22 09:49:21;;;;;;;1.33;0.90;;;28.00;50.20;;;;;;5067753;28;20125;-58
2021/06/22 09:51:55;;;;;;;1.00;0.70;;;28.00;50.20;;;;;;5066707;28;20036;-59
2021/06/22 09:54:34;;;;;;;1.25;0.70;;;28.00;50.30;;;;;;5060794;28;20035;-61
2021/06/22 09:57:05;;;;;;;;;;;28.10;50.30;;;;;;5063914;28;20090;-59
2021/06/22 09:59:52;;;;;;;1.13;0.70;;;28.10;50.20;;;;;;5059427;28;19923;-59
2021/06/22 10:02:19;;;;;;;1.20;0.77;;;28.10;50.10;;;;;;5051104;28;20056;-61
2021/06/22 10:04:46;;;;;;;1.30;0.93;;;28.10;50.10;;;;;;5067748;28;20028;-60
2021/06/22 10:07:15;;;;;;;1.00;0.70;;;28.20;50.10;;;;;;5051828;28;20531;-59
2021/06/22 10:09:41;;;;;;;1.17;0.80;;;28.20;50.10;;;;;;5066567;28;20463;-60
2021/06/22 10:12:10;;;;;;;1.80;0.70;;;28.20;50.10;;;;;;5066016;28;20025;-59
2021/06/22 10:14:37;;;;;;;;;;;28.20;50.00;;;;;;5061624;28;20118;-58
2021/06/22 10:17:05;;;;;;;1.13;0.80;;;28.20;50.00;;;;;;5054806;28;20074;-57
2021/06/22 10:19:33;;;;;;;0.65;0.60;;;28.20;50.10;;;;;;5052573;28;20033;-60
2021/06/22 10:22:00;;;;;;;0.90;0.70;;;28.30;49.80;;;;;;5049245;28;20040;-60
2021/06/22 10:24:27;;;;;;;0.65;0.60;;;28.30;49.60;;;;;;5050350;28;20039;-61
2021/06/22 10:26:54;;;;;;;1.10;0.70;;;28.30;49.60;;;;;;5048910;28;20032;-60
2021/06/22 10:29:23;;;;;;;1.20;0.68;;;28.40;49.50;;;;;;5060396;28;20036;-60
2021/06/22 10:31:51;;;;;;;1.42;0.70;;;28.40;49.50;;;;;;5053872;28;20495;-61
2021/06/22 10:34:17;;;;;;;0.98;0.73;;;28.40;49.30;;;;;;5046122;28;20577;-64
2021/06/22 10:36:51;;;;;;;1.65;0.60;;;28.40;49.30;;;;;;5051442;28;20040;-61
2021/06/22 10:39:26;;;;;;;1.23;0.68;;;28.40;49.30;;;;;;5047673;28;20338;-60
2021/06/22 10:41:53;;;;;;;1.00;0.80;;;28.40;49.20;;;;;;5046340;28;20021;-60
2021/06/22 10:44:25;;;;;;;0.90;0.68;;;28.40;49.20;;;;;;5047122;28;20029;-60
2021/06/22 10:47:21;;;;;;;1.00;0.70;;;28.40;49.10;;;;;;5054417;28;20036;-61
2021/06/22 10:50:00;;;;;;;1.00;0.70;;;28.40;49.20;;;;;;5073264;28;20028;-59
2021/06/22 10:52:49;;;;;;;1.35;0.77;;;28.40;49.50;;;;;;5055136;28;20107;-61
2021/06/22 10:55:22;;;;;;;1.25;0.70;;;28.40;49.50;;;;;;5054707;28;20132;-58
2021/06/22 10:58:03;;;;;;;1.00;0.60;;;28.50;49.80;;;;;;5054154;28;20028;-59
2021/06/22 11:00:48;;;;;;;1.05;0.70;;;28.40;49.70;;;;;;5050312;28;20043;-56
2021/06/22 11:03:24;;;;;;;0.85;0.70;;;28.40;50.00;;;;;;5051230;28;20037;-59
2021/06/22 11:06:19;;;;;;;1.45;0.70;;;28.50;50.30;;;;;;5054177;28;20033;-57
2021/06/22 11:08:44;;;;;;;0.65;0.60;;;28.50;50.00;;;;;;5054080;28;20040;-60
2021/06/22 11:11:10;;;;;;;0.73;0.70;;;28.50;50.10;;;;;;5061587;28;20028;-60
2021/06/22 11:13:57;;;;;;;0.90;0.70;;;28.50;50.10;;;;;;5050263;28;20124;-59
2021/06/22 11:16:29;;;;;;;0.80;0.60;;;28.60;50.30;;;;;;5051866;28;20111;-59
2021/06/22 11:18:55;;;;;;;1.48;0.70;;;28.60;50.30;;;;;;5065824;28;20056;-60
2021/06/22 11:21:35;;;;;;;1.30;0.60;;;28.60;51.00;;;;;;5067091;28;20345;-62
2021/06/22 11:24:19;;;;;;;0.90;0.70;;;28.60;50.20;;;;;;5061484;28;20043;-60
2021/06/22 11:26:44;;;;;;;1.02;0.70;;;28.60;50.10;;;;;;5064339;28;20035;-61
2021/06/22 11:29:20;;;;;;;0.70;0.60;;;28.60;50.00;;;;;;5052025;28;20786;-61
2021/06/22 11:31:56;;;;;;;0.90;0.60;;;28.70;50.00;;;;;;5048872;28;20025;-60
2021/06/22 11:34:24;;;;;;;0.75;0.70;;;28.70;50.10;;;;;;5055713;28;20032;-61
2021/06/22 11:36:54;;;;;;;1.35;0.80;;;28.70;50.10;;;;;;5063405;28;20025;-59
2021/06/22 11:39:27;;;;;;;1.00;0.70;;;28.70;50.20;;;;;;5058292;28;20103;-59
2021/06/22 11:42:11;;;;;;;0.60;0.60;;;28.70;50.20;;;;;;5051885;28;20029;-60
2021/06/22 11:44:40;;;;;;;1.27;0.70;;;28.80;50.20;;;;;;5051047;28;20044;-59
2021/06/22 11:47:28;;;;;;;0.70;0.60;;;28.80;50.10;;;;;;5056569;28;20044;-59
2021/06/22 11:49:58;;;;;;;1.20;0.70;;;28.80;50.00;;;;;;5060393;28;20138;-58
2021/06/22 11:52:32;;;;;;;;;;;28.90;50.00;;;;;;5069228;28;20082;-60
2021/06/22 11:55:19;;;;;;;0.77;0.60;;;28.90;49.90;;;;;;5061634;28;20267;-59
2021/06/22 11:57:50;;;;;;;0.80;0.70;;;28.90;49.90;;;;;;5065906;28;20033;-61
2021/06/22 12:00:34;;;;;;;1.48;0.70;;;28.90;49.90;;;;;;5056013;28;20040;-59
2021/06/22 12:03:07;;;;;;;0.95;0.60;;;28.90;49.90;;;;;;5048556;28;20032;-61
2021/06/22 12:05:34;;;;;;;0.90;0.60;;;28.90;50.00;;;;;;5054427;28;20120;-61
2021/06/22 12:08:05;;;;;;;2.05;0.68;;;28.90;50.40;;;;;;5051674;28;20109;-59
2021/06/22 12:10:40;;;;;;;0.77;0.60;;;28.90;50.30;;;;;;5059923;28;20044;-59
2021/06/22 12:13:07;;;;;;;0.70;0.60;;;29.00;50.30;;;;;;5048329;28;20455;-60
2021/06/22 12:15:35;;;;;;;0.80;0.70;;;29.00;50.70;;;;;;5051048;28;20029;-60
2021/06/22 12:18:02;;;;;;;0.80;0.60;;;29.00;50.30;;;;;;5064543;28;20024;-59
2021/06/22 12:20:33;;;;;;;1.33;0.80;;;29.00;50.40;;;;;;5057173;28;20108;-61
2021/06/22 12:23:15;;;;;;;1.25;0.70;;;29.00;50.50;;;;;;5054555;28;20071;-60
2021/06/22 12:25:45;;;;;;;0.55;0.55;;;29.00;50.50;;;;;;5057530;28;20051;-60
2021/06/22 12:28:12;;;;;;;0.60;0.60;;;29.00;50.40;;;;;;5059586;28;20029;-62
2021/06/22 12:30:42;;;;;;;0.60;0.60;;;29.10;50.30;;;;;;5064004;28;20033;-60
2021/06/22 12:33:22;;;;;;;1.27;0.60;;;29.10;50.40;;;;;;5060626;28;20121;-60
2021/06/22 12:35:50;;;;;;;0.90;0.70;;;29.10;50.30;;;;;;5047056;28;20024;-59
2021/06/22 12:38:18;;;;;;;0.80;0.70;;;29.10;50.30;;;;;;5051481;28;20094;-59
2021/06/22 12:40:55;;;;;;;0.60;0.60;;;29.10;50.20;;;;;;5053755;28;20495;-59
2021/06/22 12:43:37;;;;;;;0.75;0.60;;;29.10;50.30;;;;;;5050517;28;20775;-59
2021/06/22 12:46:04;;;;;;;0.63;0.50;;;29.10;50.20;;;;;;5053163;28;20552;-59
2021/06/22 12:48:30;;;;;;;0.57;0.52;;;29.10;50.30;;;;;;5048533;28;20638;-59
2021/06/22 12:50:56;;;;;;;0.73;0.60;;;29.20;50.20;;;;;;5052052;28;20099;-60
2021/06/22 12:53:22;;;;;;;1.55;0.60;;;29.20;50.00;;;;;;5053045;28;20025;-61